createdAt,value
2023-05-02T00:00:45.480Z,60.56
2023-05-02T00:03:17.618Z,60.76
2023-05-02T00:05:45.651Z,59.96
2023-05-02T00:08:13.928Z,60.40
2023-05-02T00:10:41.668Z,60.76
2023-05-02T00:13:09.479Z,61.01
2023-05-02T00:15:37.206Z,61.91
2023-05-02T00:18:05.061Z,60.43
2023-05-02T00:20:33.313Z,61.26
2023-05-02T00:23:01.032Z,61.32
2023-05-02T00:25:28.905Z,61.91
2023-05-02T00:27:57.004Z,60.60
2023-05-02T00:30:24.755Z,60.92
2023-05-02T00:32:54.407Z,60.72
2023-05-02T00:35:22.337Z,60.72
2023-05-02T00:37:50.341Z,61.01
2023-05-02T00:40:18.327Z,62.16
2023-05-02T00:42:46.773Z,61.37
2023-05-02T00:45:14.592Z,61.17
2023-05-02T00:47:42.401Z,61.21
2023-05-02T00:50:10.662Z,62.14
2023-05-02T00:52:38.554Z,61.74
2023-05-02T00:55:06.856Z,62.37
2023-05-02T00:57:34.664Z,62.50
2023-05-02T01:00:05.080Z,63.09
2023-05-02T01:02:37.066Z,62.81
2023-05-02T01:05:25.706Z,63.21
2023-05-02T01:08:15.012Z,62.13
2023-05-02T01:10:57.311Z,62.17
2023-05-02T01:13:32.985Z,62.43
2023-05-02T01:16:03.568Z,62.10
2023-05-02T01:18:36.818Z,61.92
2023-05-02T01:21:08.290Z,62.14
2023-05-02T01:24:35.044Z,62.39
2023-05-02T01:27:18.736Z,62.45
2023-05-02T01:29:49.893Z,62.92
2023-05-02T01:32:23.314Z,64.77
2023-05-02T01:34:53.325Z,63.82
2023-05-02T01:37:24.131Z,64.64
2023-05-02T01:39:54.441Z,64.62
2023-05-02T01:42:25.668Z,66.00
2023-05-02T01:44:56.634Z,64.41
2023-05-02T01:47:29.375Z,65.71
2023-05-02T01:49:59.675Z,64.64
2023-05-02T01:52:30.423Z,63.95
2023-05-02T01:54:59.305Z,63.85
2023-05-02T01:57:27.566Z,64.45
2023-05-02T01:59:57.247Z,64.11
2023-05-02T02:02:27.969Z,64.56
2023-05-02T02:04:57.785Z,64.07
2023-05-02T02:07:25.694Z,64.53
2023-05-02T02:09:53.679Z,64.86
2023-05-02T02:12:28.479Z,64.32
2023-05-02T02:15:12.433Z,64.22
2023-05-02T02:17:44.831Z,64.27
2023-05-02T02:20:15.239Z,64.41
2023-05-02T02:22:44.157Z,64.39
2023-05-02T02:25:14.709Z,65.31
2023-05-02T02:27:43.782Z,65.02
2023-05-02T02:30:12.084Z,65.34
2023-05-02T02:32:39.904Z,65.21
2023-05-02T02:35:08.399Z,65.59
2023-05-02T02:37:43.114Z,65.18
2023-05-02T02:40:31.750Z,65.18
2023-05-02T02:43:16.203Z,65.45
2023-05-02T02:46:06.957Z,66.26
2023-05-02T02:48:43.432Z,65.94
2023-05-02T02:51:16.118Z,65.82
2023-05-02T02:54:15.372Z,66.01
2023-05-02T02:56:51.019Z,66.30
2023-05-02T02:59:41.436Z,65.93
2023-05-02T03:02:15.098Z,65.80
2023-05-02T03:04:44.424Z,66.04
2023-05-02T03:07:12.514Z,66.52
2023-05-02T03:09:41.904Z,66.73
2023-05-02T03:12:10.503Z,66.94
2023-05-02T03:14:39.567Z,66.47
2023-05-02T03:17:10.752Z,67.17
2023-05-02T03:19:38.923Z,66.40
2023-05-02T03:22:06.963Z,66.44
2023-05-02T03:24:35.208Z,66.63
2023-05-02T03:27:04.581Z,66.61
2023-05-02T03:29:35.122Z,66.87
2023-05-02T03:32:03.155Z,66.51
2023-05-02T03:34:31.167Z,66.65
2023-05-02T03:36:59.587Z,67.35
2023-05-02T03:39:27.627Z,67.10
2023-05-02T03:41:55.472Z,66.71
2023-05-02T03:44:23.468Z,67.10
2023-05-02T03:46:51.821Z,67.52
2023-05-02T03:49:19.971Z,66.87
2023-05-02T03:51:48.171Z,67.13
2023-05-02T03:54:16.855Z,67.10
2023-05-02T03:56:45.331Z,66.98
2023-05-02T03:59:22.290Z,67.13
2023-05-02T04:01:50.959Z,67.18
2023-05-02T04:04:21.397Z,68.28
2023-05-02T04:06:52.307Z,67.12
2023-05-02T04:09:25.079Z,67.18
2023-05-02T04:11:57.432Z,67.19
2023-05-02T04:14:25.554Z,67.14
2023-05-02T04:16:54.925Z,67.16
2023-05-02T04:19:35.215Z,67.58
2023-05-02T04:22:03.882Z,67.63
2023-05-02T04:24:34.739Z,67.87
2023-05-02T04:27:02.999Z,67.25
2023-05-02T04:29:30.894Z,67.45
2023-05-02T04:31:59.023Z,67.19
2023-05-02T04:34:30.357Z,67.56
2023-05-02T04:36:58.100Z,66.99
2023-05-02T04:39:26.560Z,67.05
2023-05-02T04:42:03.907Z,67.19
2023-05-02T04:44:35.417Z,67.30
2023-05-02T04:47:04.642Z,66.99
2023-05-02T04:49:33.367Z,67.05
2023-05-02T04:52:01.349Z,67.10
2023-05-02T04:54:29.215Z,66.95
2023-05-02T04:56:57.280Z,66.87
2023-05-02T04:59:25.694Z,66.59
2023-05-02T05:01:53.673Z,66.40
2023-05-02T05:04:21.850Z,66.51
2023-05-02T05:06:50.131Z,66.45
2023-05-02T05:09:18.806Z,66.05
2023-05-02T05:11:46.847Z,66.52
2023-05-02T05:14:16.029Z,65.85
2023-05-02T05:16:49.005Z,65.59
2023-05-02T05:19:17.253Z,65.82
2023-05-02T05:21:45.155Z,65.25
2023-05-02T05:24:15.037Z,65.01
2023-05-02T05:26:43.379Z,64.66
2023-05-02T05:29:11.715Z,64.17
2023-05-02T05:31:42.676Z,63.85
2023-05-02T05:34:14.001Z,63.24
2023-05-02T05:36:42.815Z,62.72
2023-05-02T05:39:10.903Z,62.76
2023-05-02T05:41:40.258Z,62.18
2023-05-02T05:44:10.890Z,61.63
2023-05-02T05:46:38.720Z,61.36
2023-05-02T05:49:07.852Z,60.57
2023-05-02T05:51:36.382Z,60.12
2023-05-02T05:54:04.336Z,59.69
2023-05-02T05:56:32.415Z,59.63
2023-05-02T05:59:09.063Z,59.04
2023-05-02T06:01:36.935Z,58.95
2023-05-02T06:04:06.635Z,58.48
2023-05-02T06:06:37.587Z,58.06
2023-05-02T06:09:05.501Z,58.00
2023-05-02T06:11:33.969Z,57.64
2023-05-02T06:14:02.112Z,56.96
2023-05-02T06:16:30.133Z,56.74
2023-05-02T06:18:58.113Z,56.42
2023-05-02T06:21:26.395Z,55.94
2023-05-02T06:23:54.188Z,54.84
2023-05-02T06:26:22.170Z,53.77
2023-05-02T06:28:49.891Z,53.29
2023-05-02T06:31:17.773Z,52.37
2023-05-02T06:33:45.506Z,51.76
2023-05-02T06:36:13.408Z,51.43
2023-05-02T06:38:41.490Z,51.12
2023-05-02T06:41:17.307Z,50.85
2023-05-02T06:43:45.903Z,50.21
2023-05-02T06:46:13.835Z,49.85
2023-05-02T06:48:43.349Z,49.90
2023-05-02T06:51:11.426Z,50.21
2023-05-02T06:53:39.208Z,49.55
2023-05-02T06:56:07.177Z,49.03
2023-05-02T06:58:34.933Z,48.78
2023-05-02T07:01:02.870Z,48.08
2023-05-02T07:03:30.915Z,47.53
2023-05-02T07:05:58.929Z,45.91
2023-05-02T07:08:26.822Z,45.15
2023-05-02T07:10:54.647Z,45.05
2023-05-02T07:13:22.399Z,45.06
2023-05-02T07:15:50.233Z,44.23
2023-05-02T07:18:18.174Z,44.40
2023-05-02T07:20:46.034Z,44.15
2023-05-02T07:23:13.978Z,43.72
2023-05-02T07:25:41.816Z,43.51
2023-05-02T07:28:09.731Z,43.26
2023-05-02T07:30:37.448Z,44.02
2023-05-02T07:33:05.417Z,43.10
2023-05-02T07:35:33.475Z,42.74
2023-05-02T07:38:01.236Z,42.63
2023-05-02T07:40:29.035Z,42.53
2023-05-02T07:42:58.508Z,42.49
2023-05-02T07:45:26.333Z,42.96
2023-05-02T07:47:54.107Z,43.05
2023-05-02T07:50:22.561Z,43.52
2023-05-02T07:52:50.554Z,42.84
2023-05-02T07:55:18.350Z,42.57
2023-05-02T07:57:46.162Z,42.15
2023-05-02T08:00:14.763Z,42.60
2023-05-02T08:02:42.983Z,42.47
2023-05-02T08:05:10.914Z,42.16
2023-05-02T08:07:38.713Z,42.78
2023-05-02T08:10:07.404Z,42.99
2023-05-02T08:12:42.118Z,42.64
2023-05-02T08:15:13.716Z,42.07
2023-05-02T08:17:41.456Z,42.98
2023-05-02T08:20:09.543Z,43.16
2023-05-02T08:22:37.226Z,41.84
2023-05-02T08:25:05.316Z,42.33
2023-05-02T08:27:35.285Z,42.08
2023-05-02T08:30:03.628Z,41.71
2023-05-02T08:32:32.644Z,41.66
2023-05-02T08:35:00.517Z,41.63
2023-05-02T08:40:42.023Z,41.33
2023-05-02T08:43:16.650Z,41.28
2023-05-02T08:45:45.503Z,40.88
2023-05-02T08:48:14.996Z,40.90
2023-05-02T08:50:48.261Z,41.87
2023-05-02T08:53:18.116Z,40.44
2023-05-02T08:55:46.858Z,39.95
2023-05-02T08:58:15.483Z,40.52
2023-05-02T09:00:48.997Z,40.58
2023-05-02T09:03:42.469Z,39.70
2023-05-02T09:06:13.192Z,39.84
2023-05-02T09:08:42.896Z,39.12
2023-05-02T09:11:12.528Z,38.65
2023-05-02T09:13:51.538Z,37.63
2023-05-02T09:16:22.730Z,36.60
2023-05-02T09:18:53.071Z,36.33
2023-05-02T09:21:22.908Z,36.60
2023-05-02T09:24:00.345Z,35.57
2023-05-02T09:26:32.210Z,35.31
2023-05-02T09:29:06.698Z,35.19
2023-05-02T09:34:14.015Z,35.74
2023-05-02T09:36:54.605Z,36.92
2023-05-02T09:39:29.434Z,37.24
2023-05-02T09:41:58.803Z,37.85
2023-05-02T09:44:37.347Z,38.12
2023-05-02T09:47:07.012Z,37.98
2023-05-02T09:49:46.535Z,38.30
2023-05-02T09:52:16.389Z,38.03
2023-05-02T09:54:47.233Z,37.53
2023-05-02T09:57:16.744Z,36.87
2023-05-02T09:59:58.282Z,37.33
2023-05-02T10:02:26.568Z,36.62
2023-05-02T10:04:57.525Z,36.71
2023-05-02T10:07:26.525Z,37.22
2023-05-02T10:09:58.227Z,37.58
2023-05-02T10:12:28.035Z,37.94
2023-05-02T10:15:04.759Z,38.80
2023-05-02T10:17:42.265Z,39.01
2023-05-02T10:30:47.751Z,41.08
2023-05-02T10:33:16.354Z,41.85
2023-05-02T10:35:48.509Z,42.16
2023-05-02T10:38:19.791Z,42.65
2023-05-02T10:41:05.761Z,43.44
2023-05-02T10:43:36.657Z,44.72
2023-05-02T10:46:30.284Z,45.07
2023-05-02T10:49:09.159Z,47.32
2023-05-02T10:51:41.882Z,47.31
2023-05-02T10:54:19.386Z,47.50
2023-05-02T10:57:03.887Z,48.53
2023-05-02T10:59:42.695Z,49.42
2023-05-02T11:02:28.233Z,49.26
2023-05-02T11:05:04.403Z,50.83
2023-05-02T11:07:34.628Z,52.22
2023-05-02T11:10:17.503Z,52.82
2023-05-02T11:12:51.480Z,54.09
2023-05-02T11:15:29.035Z,54.09
2023-05-02T11:18:11.952Z,55.12
2023-05-02T11:20:44.851Z,55.12
2023-05-02T11:23:22.100Z,55.71
2023-05-02T11:25:52.365Z,56.23
2023-05-02T11:28:39.081Z,55.33
2023-05-02T11:31:27.730Z,55.37
2023-05-02T11:34:02.975Z,55.64
2023-05-02T11:36:35.671Z,55.50
2023-05-02T11:39:07.915Z,55.87
2023-05-02T11:41:42.958Z,55.47
2023-05-02T11:44:10.912Z,55.38
2023-05-02T11:46:40.617Z,56.34
2023-05-02T11:49:09.424Z,56.41
2023-05-02T11:51:37.990Z,55.27
2023-05-02T11:54:07.906Z,56.02
2023-05-02T11:56:36.000Z,55.01
2023-05-02T11:59:04.659Z,55.41
2023-05-02T12:01:32.551Z,55.21
2023-05-02T12:04:05.641Z,53.73
2023-05-02T12:06:34.052Z,53.20
2023-05-02T12:09:09.329Z,52.19
2023-05-02T12:11:38.352Z,50.42
2023-05-02T12:14:06.889Z,48.59
2023-05-02T12:16:35.441Z,49.18
2023-05-02T12:19:04.298Z,47.27
2023-05-02T12:21:35.808Z,46.51
2023-05-02T12:24:04.074Z,44.89
2023-05-02T12:26:33.600Z,45.94
2023-05-02T12:29:02.921Z,45.09
2023-05-02T12:31:32.248Z,44.21
2023-05-02T12:34:01.289Z,43.93
2023-05-02T12:36:29.464Z,44.10
2023-05-02T12:39:02.799Z,43.18
2023-05-02T12:41:38.630Z,43.25
2023-05-02T12:44:07.779Z,43.38
2023-05-02T12:46:36.500Z,44.75
2023-05-02T12:49:09.653Z,44.69
2023-05-02T12:51:41.221Z,44.51
2023-05-02T12:54:19.855Z,45.66
2023-05-02T12:56:48.980Z,45.97
2023-05-02T12:59:32.491Z,47.09
2023-05-02T13:02:00.812Z,47.63
2023-05-02T13:04:40.253Z,48.20
2023-05-02T13:07:08.091Z,49.72
2023-05-02T13:09:36.141Z,49.75
2023-05-02T13:12:04.709Z,49.97
2023-05-02T13:14:32.782Z,50.34
2023-05-02T13:17:00.785Z,50.12
2023-05-02T13:19:31.374Z,50.71
2023-05-02T13:21:59.573Z,51.33
2023-05-02T13:24:27.494Z,52.93
2023-05-02T13:26:57.888Z,54.73
2023-05-02T13:29:26.769Z,52.83
2023-05-02T13:31:54.477Z,52.35
2023-05-02T13:34:22.365Z,52.55
2023-05-02T13:36:51.181Z,52.38
2023-05-02T13:39:19.456Z,51.45
2023-05-02T13:41:47.554Z,50.90
2023-05-02T13:44:15.679Z,49.46
2023-05-02T13:46:44.375Z,48.45
2023-05-02T13:49:12.321Z,48.05
2023-05-02T13:51:40.100Z,48.51
2023-05-02T13:54:07.893Z,47.56
2023-05-02T13:56:36.205Z,47.39
2023-05-02T13:59:06.079Z,46.90
2023-05-02T14:01:35.516Z,45.54
2023-05-02T14:04:08.722Z,45.85
2023-05-02T14:06:37.917Z,44.96
2023-05-02T14:09:07.289Z,43.93
2023-05-02T14:11:35.211Z,43.58
2023-05-02T14:14:03.030Z,43.45
2023-05-02T14:16:32.735Z,43.53
2023-05-02T14:19:00.504Z,44.34
2023-05-02T14:21:28.289Z,44.12
2023-05-02T14:23:56.110Z,44.05
2023-05-02T14:26:24.241Z,44.64
2023-05-02T14:28:52.005Z,43.68
2023-05-02T14:31:19.769Z,44.24
2023-05-02T14:33:47.621Z,44.05
2023-05-02T14:36:15.526Z,44.08
2023-05-02T14:38:43.485Z,44.16
2023-05-02T14:41:11.340Z,44.44
2023-05-02T14:43:39.642Z,44.41
2023-05-02T14:46:07.409Z,44.73
2023-05-02T14:48:35.194Z,44.98
2023-05-02T14:51:04.228Z,45.32
2023-05-02T14:53:33.544Z,45.87
2023-05-02T14:56:01.278Z,45.87
2023-05-02T14:58:29.196Z,46.28
2023-05-02T15:00:57.022Z,46.25
2023-05-02T15:03:24.908Z,46.84
2023-05-02T15:05:52.966Z,46.92
2023-05-02T15:08:21.175Z,47.14
2023-05-02T15:10:49.026Z,47.13
2023-05-02T15:13:16.983Z,47.57
2023-05-02T15:15:47.546Z,47.38
2023-05-02T15:18:15.357Z,47.66
2023-05-02T15:20:44.561Z,48.04
2023-05-02T15:23:12.191Z,48.02
2023-05-02T15:25:40.120Z,48.54
2023-05-02T15:28:08.177Z,48.29
2023-05-02T15:30:36.032Z,48.15
2023-05-02T15:33:04.092Z,48.20
2023-05-02T15:35:31.907Z,48.33
2023-05-02T15:37:59.749Z,48.54
2023-05-02T15:40:28.477Z,48.87
2023-05-02T15:42:56.333Z,48.94
2023-05-02T15:45:24.115Z,48.80
2023-05-02T15:47:52.294Z,49.16
2023-05-02T15:50:20.265Z,48.48
2023-05-02T15:52:48.029Z,48.51
2023-05-02T15:55:15.928Z,48.52
2023-05-02T15:57:43.665Z,49.05
2023-05-02T16:00:16.746Z,48.84
2023-05-02T16:02:44.686Z,48.91
2023-05-02T16:05:12.656Z,48.66
2023-05-02T16:07:40.494Z,47.85
2023-05-02T16:10:09.380Z,48.11
2023-05-02T16:12:37.241Z,48.41
2023-05-02T16:15:06.230Z,48.31
2023-05-02T16:17:33.993Z,49.68
2023-05-02T16:20:02.356Z,48.93
2023-05-02T16:22:30.816Z,48.81
2023-05-02T16:24:58.568Z,48.78
2023-05-02T16:27:26.733Z,48.27
2023-05-02T16:29:54.664Z,48.46
2023-05-02T16:32:23.683Z,48.71
2023-05-02T16:34:51.404Z,48.80
2023-05-02T16:37:19.793Z,49.16
2023-05-02T16:39:48.079Z,48.79
2023-05-02T16:42:16.419Z,49.16
2023-05-02T16:44:44.689Z,49.72
2023-05-02T16:47:12.472Z,49.76
2023-05-02T16:49:40.342Z,49.54
2023-05-02T16:52:08.061Z,49.88
2023-05-02T16:54:35.973Z,49.76
2023-05-02T16:57:04.104Z,49.79
2023-05-02T16:59:31.955Z,49.93
2023-05-02T17:02:00.123Z,50.41
2023-05-02T17:04:28.505Z,50.92
2023-05-02T17:06:56.261Z,51.02
2023-05-02T17:09:24.488Z,50.89
2023-05-02T17:11:52.593Z,51.20
2023-05-02T17:14:20.902Z,50.70
2023-05-02T17:16:48.716Z,50.57
2023-05-02T17:19:16.702Z,50.61
2023-05-02T17:21:44.444Z,50.84
2023-05-02T17:24:12.393Z,50.88
2023-05-02T17:26:40.989Z,51.19
2023-05-02T17:29:08.874Z,51.55
2023-05-02T17:31:38.101Z,51.64
2023-05-02T17:34:07.100Z,52.23
2023-05-02T17:36:35.614Z,53.55
2023-05-02T17:39:06.993Z,53.81
2023-05-02T17:41:37.715Z,54.75
2023-05-02T17:44:05.606Z,55.12
2023-05-02T17:46:33.628Z,54.60
2023-05-02T17:49:01.618Z,55.08
2023-05-02T17:51:29.442Z,55.09
2023-05-02T17:53:57.445Z,55.68
2023-05-02T17:56:25.160Z,55.91
2023-05-02T17:58:53.791Z,55.95
2023-05-02T18:01:21.608Z,56.54
2023-05-02T18:03:50.016Z,56.44
2023-05-02T18:06:18.678Z,56.75
2023-05-02T18:08:46.472Z,57.39
2023-05-02T18:11:16.579Z,57.52
2023-05-02T18:13:44.993Z,56.88
2023-05-02T18:16:14.033Z,57.22
2023-05-02T18:18:42.197Z,57.28
2023-05-02T18:21:10.570Z,58.39
2023-05-02T18:23:38.485Z,57.24
2023-05-02T18:26:12.122Z,57.74
2023-05-02T18:28:42.686Z,57.27
2023-05-02T18:31:21.157Z,56.80
2023-05-02T18:33:49.378Z,56.63
2023-05-02T18:36:23.541Z,57.07
2023-05-02T18:38:51.318Z,57.37
2023-05-02T18:41:19.200Z,57.97
2023-05-02T18:43:47.318Z,58.13
2023-05-02T18:46:15.168Z,59.41
2023-05-02T18:48:43.475Z,59.67
2023-05-02T18:51:11.291Z,59.30
2023-05-02T18:53:39.100Z,59.28
2023-05-02T18:56:16.160Z,59.71
2023-05-02T18:58:43.939Z,59.02
2023-05-02T19:01:16.073Z,59.50
2023-05-02T19:03:44.312Z,59.18
2023-05-02T19:06:13.510Z,59.72
2023-05-02T19:08:41.436Z,59.97
2023-05-02T19:11:09.361Z,60.48
2023-05-02T19:13:37.616Z,60.17
2023-05-02T19:16:09.932Z,59.97
2023-05-02T19:18:38.939Z,59.82
2023-05-02T19:21:13.987Z,60.67
2023-05-02T19:23:43.277Z,60.80
2023-05-02T19:26:12.167Z,60.64
2023-05-02T19:28:40.550Z,59.94
2023-05-02T19:31:12.743Z,59.84
2023-05-02T19:33:41.050Z,60.42
2023-05-02T19:36:08.893Z,60.20
2023-05-02T19:38:36.583Z,60.58
2023-05-02T19:41:04.353Z,61.38
2023-05-02T19:43:33.144Z,60.55
2023-05-02T19:46:01.392Z,62.24
2023-05-02T19:48:29.159Z,62.11
2023-05-02T19:50:57.037Z,62.18
2023-05-02T19:53:25.269Z,63.20
2023-05-02T19:55:53.468Z,62.85
2023-05-02T19:58:21.155Z,63.85
2023-05-02T20:00:50.145Z,63.57
2023-05-02T20:03:18.819Z,63.31
2023-05-02T20:05:47.950Z,63.99
2023-05-02T20:08:16.479Z,63.48
2023-05-02T20:10:44.830Z,63.88
2023-05-02T20:13:12.622Z,63.74
2023-05-02T20:15:40.288Z,64.17
2023-05-02T20:21:11.883Z,65.77
2023-05-02T20:23:43.610Z,66.82
2023-05-02T20:26:11.380Z,67.22
2023-05-02T20:28:39.111Z,67.28
2023-05-02T20:31:07.140Z,67.67
2023-05-02T20:33:44.752Z,67.74
2023-05-02T20:36:14.883Z,67.22
2023-05-02T20:38:44.635Z,67.93
2023-05-02T20:41:14.062Z,68.67
2023-05-02T20:43:45.001Z,68.63
2023-05-02T20:46:16.358Z,69.74
2023-05-02T20:48:44.296Z,69.93
2023-05-02T20:51:12.123Z,70.14
2023-05-02T20:53:40.140Z,68.76
2023-05-02T20:56:07.993Z,69.81
2023-05-02T20:58:35.792Z,71.00
2023-05-02T21:01:03.641Z,71.40
2023-05-02T21:03:32.096Z,70.54
2023-05-02T21:05:59.882Z,71.28
2023-05-02T21:08:27.654Z,71.19
2023-05-02T21:10:55.509Z,70.80
2023-05-02T21:13:23.547Z,70.33
2023-05-02T21:15:51.531Z,71.69
2023-05-02T21:18:20.816Z,70.39
2023-05-02T21:20:49.144Z,71.19
2023-05-02T21:23:16.830Z,71.16
2023-05-02T21:25:44.603Z,71.51
2023-05-02T21:28:12.613Z,72.55
2023-05-02T21:30:40.402Z,70.80
2023-05-02T21:33:08.232Z,71.98
2023-05-02T21:35:36.050Z,72.85
2023-05-02T21:38:04.125Z,76.65
2023-05-02T21:40:35.096Z,75.86
2023-05-02T21:43:03.034Z,75.26
2023-05-02T21:45:31.233Z,76.26
2023-05-02T21:47:59.180Z,76.54
2023-05-02T21:50:26.951Z,78.25
2023-05-02T21:52:54.852Z,78.99
2023-05-02T21:55:22.810Z,79.45
2023-05-02T21:57:50.535Z,79.24
2023-05-02T22:00:18.609Z,79.48
2023-05-02T22:02:46.635Z,79.07
2023-05-02T22:05:15.687Z,81.11
2023-05-02T22:07:43.467Z,79.71
2023-05-02T22:10:11.957Z,80.55
2023-05-02T22:12:39.699Z,79.76
2023-05-02T22:15:09.595Z,80.35
2023-05-02T22:17:37.488Z,81.06
2023-05-02T22:20:08.194Z,80.95
2023-05-02T22:22:36.067Z,80.63
2023-05-02T22:25:04.182Z,81.70
2023-05-02T22:27:31.959Z,83.36
2023-05-02T22:30:00.118Z,81.01
2023-05-02T22:32:28.139Z,81.30
2023-05-02T22:34:55.871Z,79.87
2023-05-02T22:37:23.693Z,80.07
2023-05-02T22:39:51.591Z,79.80
2023-05-02T22:42:19.339Z,80.81
2023-05-02T22:44:54.672Z,81.98
2023-05-02T22:47:22.916Z,81.60
2023-05-02T22:49:52.486Z,80.64
2023-05-02T22:52:20.815Z,80.38
2023-05-02T22:54:48.824Z,81.93
2023-05-02T22:57:16.573Z,81.67
2023-05-02T22:59:44.288Z,80.52
2023-05-02T23:02:12.523Z,80.01
2023-05-02T23:04:40.531Z,80.47
2023-05-02T23:07:08.422Z,81.62
2023-05-02T23:09:36.243Z,80.24
2023-05-02T23:12:05.651Z,80.79
2023-05-02T23:14:33.437Z,81.29
2023-05-02T23:17:02.769Z,80.40
2023-05-02T23:19:30.796Z,79.66
2023-05-02T23:21:59.448Z,79.44
2023-05-02T23:24:27.909Z,80.01
2023-05-02T23:26:55.727Z,79.91
2023-05-02T23:29:23.595Z,82.09
2023-05-02T23:31:53.662Z,81.22
2023-05-02T23:34:22.005Z,82.23
2023-05-02T23:36:51.793Z,80.54
2023-05-02T23:39:19.532Z,79.64
2023-05-02T23:41:47.429Z,79.69
2023-05-02T23:44:15.216Z,81.67
2023-05-02T23:46:43.242Z,81.33
2023-05-02T23:49:11.223Z,81.93
2023-05-02T23:51:38.975Z,79.85
2023-05-02T23:54:07.597Z,81.20
2023-05-02T23:56:35.651Z,81.87
2023-05-02T23:59:03.667Z,80.55
